aviador You're here:

LFSL Decoded Metar

BRIVE in FRANCE
Report Time2018-01-21 08:00:00
UTC Time2018-01-21 08:35:02
Flight Rules lifr LIFR
Wind280° at 08 kt
W.Decomp.*RWY 29: 7.9 kt HW 1.4 kt LCW
W.Rank280° ranks 11
Current wind is above 280° avg. (5.3)
Visibility4400 m
Phenomena:Light Drizzle
Mist
Clouds:Overcast 004 Hf
Ceiling400 ft
Temp11°C (ISA -2)
Dew Point11°C (100% RH)
AAT8.4°C
QNH1019 hPa
Density Alt758 ft
Elevation1,016 ft
Report Wrong Elevation
Raw Report
LFSL 210800Z AUTO 28008KT 240V310 4400 -DZ BR OVC004 11/11 Q1019
TEMPO 28016G28KT OVC005=

Extra information for LFSL:More info

Metar Taf Metar & Taf Last 4 Metars F.Rules Stats Wind Profile Meteogram Temp Stats Airport Information Weather charts Add Link Nearby VenuesMetar ALERT Operation Metar Decoded Social comments